Time;durP1;ratioP1;P1;durP2;ratioP2;P2;SDS_P1;SDS_P2;PMS_P1;PMS_P2;Temp;Humidity;BMP_temperature;BMP_pressure;BME280_temperature;BME280_humidity;BME280_pressure;Samples;Min_cycle;Max_cycle;Signal;HPM_P1;HPM_P2
2023/03/26 00:00:43;;;;;;;10.13;4.15;;;;;;;7.79;100.00;100645.19;5027326;28;20107;-64
2023/03/26 00:03:13;;;;;;;8.68;4.18;;;;;;;7.76;100.00;100635.56;5028957;28;20017;-64
2023/03/26 00:05:39;;;;;;;8.63;3.88;;;;;;;7.68;100.00;100649.44;5045924;28;20035;-65
2023/03/26 00:08:09;;;;;;;10.98;4.30;;;;;;;7.63;100.00;100641.06;5028556;28;20070;-64
2023/03/26 00:10:36;;;;;;;10.32;3.78;;;;;;;7.57;100.00;100639.19;5026301;28;20025;-64
2023/03/26 00:13:03;;;;;;;10.23;4.22;;;;;;;7.53;100.00;100648.88;5026868;28;20030;-64
2023/03/26 00:15:29;;;;;;;10.57;4.10;;;;;;;7.48;100.00;100643.22;5038117;28;20044;-65
2023/03/26 00:17:55;;;;;;;10.52;3.63;;;;;;;7.39;100.00;100639.88;5045680;28;20025;-64
2023/03/26 00:20:21;;;;;;;11.80;3.70;;;;;;;7.31;100.00;100645.59;5039845;28;20053;-64
2023/03/26 00:22:46;;;;;;;10.80;3.88;;;;;;;7.26;100.00;100637.19;5026830;28;20036;-63
2023/03/26 00:25:12;;;;;;;9.95;3.90;;;;;;;7.17;100.00;100642.06;5026918;28;20033;-65
2023/03/26 00:27:38;;;;;;;10.38;3.70;;;;;;;7.11;100.00;100645.63;5040745;28;20025;-64
2023/03/26 00:30:04;;;;;;;10.65;4.10;;;;;;;7.06;100.00;100641.88;5027061;28;20479;-63
2023/03/26 00:32:30;;;;;;;9.85;3.58;;;;;;;6.99;100.00;100645.47;5027744;28;20096;-64
2023/03/26 00:35:00;;;;;;;10.80;4.00;;;;;;;6.96;100.00;100636.84;5045676;28;20368;-64
2023/03/26 00:37:25;;;;;;;11.68;3.80;;;;;;;6.92;100.00;100635.59;5027665;28;20124;-65
2023/03/26 00:39:58;;;;;;;10.63;3.55;;;;;;;6.87;100.00;100624.47;5046024;28;20116;-65
2023/03/26 00:42:24;;;;;;;9.80;3.65;;;;;;;6.85;100.00;100615.66;5045834;28;20132;-65
2023/03/26 00:44:53;;;;;;;10.27;3.78;;;;;;;6.80;100.00;100608.09;5033454;28;20040;-65
2023/03/26 00:47:20;;;;;;;10.30;3.42;;;;;;;6.76;100.00;100610.41;5026483;28;20060;-65
2023/03/26 00:49:45;;;;;;;9.25;3.53;;;;;;;6.71;100.00;100606.63;5027036;28;20021;-64
2023/03/26 00:52:11;;;;;;;9.30;3.60;;;;;;;6.68;100.00;100605.16;5027569;28;20048;-65
2023/03/26 00:54:36;;;;;;;10.30;3.53;;;;;;;6.65;100.00;100611.03;5025297;28;20060;-64
2023/03/26 00:57:05;;;;;;;10.13;3.70;;;;;;;6.65;100.00;100612.94;5026387;28;20022;-64
2023/03/26 00:59:34;;;;;;;10.77;3.90;;;;;;;6.63;100.00;100604.94;5044941;28;20029;-64
2023/03/26 01:02:00;;;;;;;11.15;3.65;;;;;;;6.66;100.00;100612.72;5046338;28;20040;-65
2023/03/26 01:04:33;;;;;;;10.48;3.63;;;;;;;6.72;100.00;100608.31;5037054;28;20026;-65
2023/03/26 01:07:12;;;;;;;11.10;3.47;;;;;;;6.78;100.00;100599.25;5013233;28;20036;-65
2023/03/26 01:09:41;;;;;;;10.32;3.90;;;;;;;6.85;100.00;100591.09;5045781;28;20025;-64
2023/03/26 01:12:11;;;;;;;9.40;3.78;;;;;;;6.91;100.00;100584.78;5043694;28;20041;-65
2023/03/26 01:14:36;;;;;;;11.02;3.90;;;;;;;6.98;100.00;100580.13;5031876;28;20487;-65
2023/03/26 01:17:05;;;;;;;10.10;3.53;;;;;;;7.01;100.00;100574.25;5045036;28;20071;-65
2023/03/26 01:19:55;;;;;;;9.93;3.58;;;;;;;7.03;100.00;100572.13;5047167;28;20021;-65
2023/03/26 01:22:23;;;;;;;10.25;3.38;;;;;;;6.99;100.00;100565.41;5039076;28;20052;-64
2023/03/26 01:24:55;;;;;;;9.40;3.28;;;;;;;6.96;100.00;100571.31;5033417;28;20507;-65
2023/03/26 01:27:43;;;;;;;9.70;3.78;;;;;;;6.96;100.00;100565.84;5043974;28;20026;-63
2023/03/26 01:30:20;;;;;;;10.27;3.92;;;;;;;6.92;100.00;100556.41;5025992;28;20044;-65
2023/03/26 01:33:13;;;;;;;10.13;3.45;;;;;;;6.87;100.00;100556.22;5042779;28;20033;-65
2023/03/26 01:35:49;;;;;;;8.48;3.25;;;;;;;6.84;100.00;100556.63;5043092;28;20043;-64
2023/03/26 01:38:45;;;;;;;9.02;3.03;;;;;;;6.78;100.00;100541.09;5049789;28;20033;-64
2023/03/26 01:41:13;;;;;;;10.20;3.92;;;;;;;6.74;100.00;100536.09;5050444;28;20042;-65
2023/03/26 01:43:45;;;;;;;;;;;;;;;6.77;100.00;100529.34;5049963;28;20455;-65
2023/03/26 01:46:13;;;;;;;9.02;3.38;;;;;;;6.64;100.00;100516.59;5044012;28;19921;-64
2023/03/26 01:48:42;;;;;;;10.05;3.50;;;;;;;6.61;100.00;100522.47;5030262;28;20017;-65
2023/03/26 01:51:09;;;;;;;;;;;;;;;6.60;100.00;100515.34;5033179;28;20041;-64
2023/03/26 01:53:46;;;;;;;9.98;3.45;;;;;;;6.54;100.00;100523.50;5029847;28;19939;-64
2023/03/26 01:56:30;;;;;;;9.30;3.33;;;;;;;6.49;100.00;100525.00;5030482;28;20108;-64
2023/03/26 01:59:01;;;;;;;9.65;3.55;;;;;;;6.44;100.00;100522.09;5028931;28;20469;-65
2023/03/26 02:01:48;;;;;;;9.57;3.58;;;;;;;6.41;100.00;100522.50;5039933;28;20120;-64
2023/03/26 02:04:43;;;;;;;11.18;3.50;;;;;;;6.37;100.00;100513.06;5048851;28;20041;-64
2023/03/26 02:07:33;;;;;;;11.40;3.58;;;;;;;6.37;100.00;100513.06;5043767;28;20072;-64
2023/03/26 02:10:05;;;;;;;12.23;3.60;;;;;;;6.36;100.00;100496.91;5029900;28;20396;-64
2023/03/26 02:12:31;;;;;;;9.68;3.55;;;;;;;6.32;100.00;100503.81;5029267;28;20071;-64
2023/03/26 02:14:59;;;;;;;8.20;2.95;;;;;;;6.31;100.00;100499.44;5033062;28;20036;-65
2023/03/26 02:17:24;;;;;;;9.48;3.80;;;;;;;6.30;100.00;100497.75;5049007;28;20075;-62
2023/03/26 02:19:50;;;;;;;8.07;3.00;;;;;;;6.29;100.00;100494.19;5048242;28;20036;-64
2023/03/26 02:22:15;;;;;;;8.38;3.47;;;;;;;6.29;100.00;100483.28;5043709;28;20111;-65
2023/03/26 02:24:41;;;;;;;9.40;3.13;;;;;;;6.29;100.00;100480.56;5038186;28;20083;-62
2023/03/26 02:27:08;;;;;;;10.25;3.42;;;;;;;6.27;100.00;100481.81;5045437;28;20033;-64
2023/03/26 02:29:36;;;;;;;9.27;3.42;;;;;;;6.24;100.00;100475.72;5044030;28;20086;-63
2023/03/26 02:32:03;;;;;;;;;;;;;;;6.32;100.00;100468.38;5049069;28;20037;-65
2023/03/26 02:34:29;;;;;;;9.65;3.13;;;;;;;6.25;100.00;100465.66;5046356;28;19917;-64
2023/03/26 02:36:55;;;;;;;9.45;3.47;;;;;;;6.24;100.00;100467.56;5014928;28;20037;-64
2023/03/26 02:39:21;;;;;;;9.75;3.38;;;;;;;6.23;100.00;100470.47;5026906;28;20044;-64
2023/03/26 02:41:46;;;;;;;8.88;3.35;;;;;;;6.22;100.00;100466.91;5028850;28;20045;-65
2023/03/26 02:44:12;;;;;;;9.35;3.20;;;;;;;6.24;100.00;100464.00;5041626;28;20033;-65
2023/03/26 02:46:37;;;;;;;8.18;3.22;;;;;;;6.24;100.00;100464.81;5095503;22;20067;-64
2023/03/26 02:49:02;;;;;;;8.45;3.20;;;;;;;6.24;100.00;100455.81;5022022;28;20060;-63
2023/03/26 02:51:27;;;;;;;9.65;3.15;;;;;;;6.27;100.00;100457.25;5024004;28;20022;-64
2023/03/26 02:53:53;;;;;;;8.23;3.15;;;;;;;6.25;100.00;100457.47;5037981;28;20075;-64
2023/03/26 02:56:19;;;;;;;10.57;3.60;;;;;;;6.28;100.00;100451.59;5047494;28;20071;-64
2023/03/26 02:58:45;;;;;;;8.57;3.10;;;;;;;6.29;100.00;100439.66;5032749;28;20566;-64
2023/03/26 03:01:12;;;;;;;7.80;2.88;;;;;;;6.29;100.00;100441.53;5027721;28;20065;-64
2023/03/26 03:03:37;;;;;;;8.93;3.50;;;;;;;6.30;100.00;100441.31;5047259;28;20029;-65
2023/03/26 03:06:03;;;;;;;10.75;3.30;;;;;;;6.32;100.00;100433.75;5048100;28;20554;-63
2023/03/26 03:08:28;;;;;;;9.82;3.63;;;;;;;6.33;100.00;100431.84;5029781;28;20095;-67
2023/03/26 03:10:58;;;;;;;8.43;3.22;;;;;;;6.33;100.00;100418.22;5026478;28;20125;-64
2023/03/26 03:13:24;;;;;;;8.32;3.58;;;;;;;6.34;100.00;100423.47;5027891;28;20068;-65
2023/03/26 03:15:49;;;;;;;9.38;3.10;;;;;;;6.36;100.00;100418.63;5028922;28;20053;-62
2023/03/26 03:18:14;;;;;;;10.07;3.72;;;;;;;6.40;100.00;100421.78;5040813;28;20013;-64
2023/03/26 03:20:40;;;;;;;10.55;3.38;;;;;;;6.41;100.00;100409.81;5036201;28;20091;-64
2023/03/26 03:23:05;;;;;;;8.77;2.97;;;;;;;6.45;100.00;100408.34;5027761;28;20076;-64
2023/03/26 03:25:31;;;;;;;9.57;3.00;;;;;;;6.49;100.00;100401.41;5028225;28;20029;-64
2023/03/26 03:27:57;;;;;;;10.38;3.42;;;;;;;6.50;100.00;100403.09;5027367;28;20029;-64
2023/03/26 03:30:23;;;;;;;8.13;2.97;;;;;;;6.52;100.00;100400.97;5031342;28;20025;-64
2023/03/26 03:32:48;;;;;;;8.70;3.22;;;;;;;6.54;100.00;100396.16;5047265;28;20021;-63
2023/03/26 03:35:13;;;;;;;8.07;3.22;;;;;;;6.56;100.00;100387.75;5047521;28;20025;-64
2023/03/26 03:37:39;;;;;;;7.65;2.78;;;;;;;6.58;100.00;100391.06;5038561;28;20025;-64
2023/03/26 03:40:06;;;;;;;8.82;2.80;;;;;;;6.59;100.00;100399.06;5027317;28;20116;-64
2023/03/26 03:42:32;;;;;;;8.43;2.95;;;;;;;6.63;100.00;100388.53;5026671;28;20116;-62
2023/03/26 03:44:57;;;;;;;9.63;3.53;;;;;;;6.63;100.00;100380.34;5027393;28;20100;-64
2023/03/26 03:47:22;;;;;;;8.48;3.08;;;;;;;6.66;100.00;100379.94;5021344;28;20046;-63
2023/03/26 03:49:48;;;;;;;9.13;3.42;;;;;;;6.69;100.00;100379.47;5007631;28;20037;-64
2023/03/26 03:52:15;;;;;;;9.10;2.92;;;;;;;6.72;100.00;100379.06;5025675;28;20502;-63
2023/03/26 03:54:40;;;;;;;9.80;3.15;;;;;;;6.74;100.00;100376.94;5045678;28;20025;-64
2023/03/26 03:57:06;;;;;;;6.75;2.83;;;;;;;6.76;100.00;100369.38;5033553;28;20558;-62
2023/03/26 03:59:31;;;;;;;7.43;2.55;;;;;;;6.79;100.00;100370.81;5026550;28;20034;-62
2023/03/26 04:01:56;;;;;;;9.68;3.10;;;;;;;6.81;100.00;100366.84;5037970;28;20097;-62
2023/03/26 04:04:23;;;;;;;8.13;3.30;;;;;;;6.82;100.00;100354.03;5046616;28;20119;-64
2023/03/26 04:06:49;;;;;;;6.43;2.67;;;;;;;6.83;100.00;100363.88;5044993;28;20421;-64
2023/03/26 04:09:15;;;;;;;6.25;2.67;;;;;;;6.84;100.00;100355.47;5035981;28;20028;-63
2023/03/26 04:11:40;;;;;;;8.00;2.75;;;;;;;6.87;100.00;100349.59;5045320;28;20093;-64
2023/03/26 04:14:05;;;;;;;7.05;2.53;;;;;;;6.88;100.00;100339.50;5032208;28;20125;-64
2023/03/26 04:16:30;;;;;;;7.00;2.63;;;;;;;6.88;100.00;100345.78;5037087;28;20024;-64
2023/03/26 04:18:57;;;;;;;8.55;2.90;;;;;;;6.87;100.00;100338.66;5026338;28;20037;-62
2023/03/26 04:21:23;;;;;;;6.63;2.63;;;;;;;6.88;100.00;100331.31;5017910;28;20045;-64
2023/03/26 04:23:48;;;;;;;6.18;2.60;;;;;;;6.88;100.00;100334.03;5024016;28;20248;-64
2023/03/26 04:26:18;;;;;;;6.88;2.75;;;;;;;6.89;100.00;100330.25;5047045;28;20129;-64
2023/03/26 04:28:54;;;;;;;8.10;2.63;;;;;;;6.88;100.00;100323.94;5029202;28;20052;-63
2023/03/26 04:31:22;;;;;;;7.82;2.67;;;;;;;6.88;100.00;100310.31;5025728;28;20440;-63
2023/03/26 04:33:53;;;;;;;6.55;2.78;;;;;;;6.87;100.00;100310.53;5024693;28;20033;-63
2023/03/26 04:36:20;;;;;;;6.72;2.70;;;;;;;6.85;100.00;100305.31;5027101;28;20026;-61
2023/03/26 04:38:48;;;;;;;7.88;2.42;;;;;;;6.84;100.00;100305.50;5023697;28;20176;-62
2023/03/26 04:41:14;;;;;;;8.88;2.75;;;;;;;6.82;100.00;100302.16;5029432;28;20029;-63
2023/03/26 04:43:46;;;;;;;6.43;2.63;;;;;;;6.82;100.00;100297.53;5036852;28;20029;-64
2023/03/26 04:46:12;;;;;;;6.28;2.25;;;;;;;6.82;100.00;100283.91;5044549;28;20021;-64
2023/03/26 04:48:38;;;;;;;7.22;2.50;;;;;;;6.84;100.00;100283.66;5046234;28;20045;-63
2023/03/26 04:51:08;;;;;;;8.73;2.83;;;;;;;6.84;100.00;100286.41;5038815;28;20043;-64
2023/03/26 04:53:34;;;;;;;7.10;2.85;;;;;;;6.82;100.00;100277.59;5025901;28;20383;-64
2023/03/26 04:56:22;;;;;;;6.43;2.38;;;;;;;6.80;100.00;100274.28;5026959;28;20025;-61
2023/03/26 04:58:49;;;;;;;6.07;2.50;;;;;;;6.78;100.00;100269.00;4985582;28;20056;-63
2023/03/26 05:01:15;;;;;;;6.05;2.20;;;;;;;6.74;100.00;100255.00;5025744;28;20033;-63
2023/03/26 05:03:41;;;;;;;6.60;2.17;;;;;;;6.73;100.00;100252.47;5028327;28;20117;-63
2023/03/26 05:06:09;;;;;;;5.80;2.20;;;;;;;6.69;100.00;100254.81;5037745;28;20566;-64
2023/03/26 05:08:34;;;;;;;;;;;;;;;6.72;100.00;100246.16;5032394;28;20040;-63
2023/03/26 05:10:59;;;;;;;7.03;2.33;;;;;;;6.69;100.00;100248.50;5050693;28;19913;-64
2023/03/26 05:13:25;;;;;;;6.68;2.30;;;;;;;6.68;100.00;100244.94;5030538;28;20179;-63
2023/03/26 05:15:51;;;;;;;4.75;2.10;;;;;;;6.67;100.00;100239.69;5037928;28;20826;-64
2023/03/26 05:18:16;;;;;;;6.75;2.50;;;;;;;6.66;100.00;100233.41;5034783;28;20029;-63
2023/03/26 05:20:42;;;;;;;7.38;2.55;;;;;;;6.65;100.00;100233.66;5024664;28;20168;-63
2023/03/26 05:23:08;;;;;;;6.78;2.20;;;;;;;6.65;100.00;100237.19;5029074;28;20479;-64
2023/03/26 05:25:33;;;;;;;7.82;2.65;;;;;;;6.66;100.00;100225.22;5032469;28;20372;-64
2023/03/26 05:27:59;;;;;;;4.43;2.00;;;;;;;6.69;100.00;100222.06;5034272;28;20029;-61
2023/03/26 05:30:25;;;;;;;6.45;1.98;;;;;;;6.73;100.00;100226.00;5023239;28;20495;-64
2023/03/26 05:32:53;;;;;;;4.53;2.15;;;;;;;6.73;100.00;100215.09;5024931;28;20137;-64
2023/03/26 05:35:18;;;;;;;;;;;;;;;6.72;100.00;100215.31;5012527;28;20026;-64
2023/03/26 05:37:45;;;;;;;5.35;2.20;;;;;;;6.65;100.00;100220.00;5049888;28;19927;-64
2023/03/26 05:40:13;;;;;;;4.68;2.00;;;;;;;6.63;100.00;100222.09;5049417;28;20025;-63
2023/03/26 05:42:40;;;;;;;5.13;2.00;;;;;;;6.62;100.00;100212.25;5044836;28;20383;-62
2023/03/26 05:45:08;;;;;;;5.90;2.38;;;;;;;6.62;100.00;100210.34;5027886;28;20104;-64
2023/03/26 05:47:33;;;;;;;5.22;2.22;;;;;;;6.63;100.00;100203.81;5028772;28;20484;-63
2023/03/26 05:49:59;;;;;;;5.45;2.13;;;;;;;6.65;100.00;100204.47;5030498;28;20032;-63
2023/03/26 05:52:24;;;;;;;6.50;2.50;;;;;;;6.68;100.00;100198.53;5029075;28;20083;-63
2023/03/26 05:54:50;;;;;;;6.28;2.08;;;;;;;6.69;100.00;100194.78;5026434;28;20037;-63
2023/03/26 05:57:15;;;;;;;5.60;2.10;;;;;;;6.67;100.00;100191.41;5029441;28;20464;-61
2023/03/26 05:59:40;;;;;;;5.28;2.00;;;;;;;6.67;100.00;100196.03;5028279;28;20030;-63
2023/03/26 06:02:08;;;;;;;5.72;1.98;;;;;;;6.70;100.00;100201.06;5029111;28;20037;-63
2023/03/26 06:04:33;;;;;;;6.60;2.58;;;;;;;6.70;100.00;100188.25;5027590;28;20021;-63
2023/03/26 06:06:58;;;;;;;5.43;2.13;;;;;;;6.73;100.00;100184.25;5028855;28;20383;-63
2023/03/26 06:09:24;;;;;;;5.82;2.00;;;;;;;6.74;100.00;100186.75;5029364;28;20033;-64
2023/03/26 06:11:49;;;;;;;5.68;2.58;;;;;;;6.75;100.00;100184.88;5047684;28;20370;-63
2023/03/26 06:14:15;;;;;;;6.45;2.45;;;;;;;6.80;100.00;100186.94;5032720;28;20379;-63
2023/03/26 06:16:40;;;;;;;7.07;2.30;;;;;;;6.80;100.00;100178.75;5028609;28;20026;-63
2023/03/26 06:19:05;;;;;;;5.82;2.50;;;;;;;6.80;100.00;100176.00;5029535;28;20022;-63
2023/03/26 06:21:31;;;;;;;6.88;2.25;;;;;;;6.80;100.00;100176.84;5034159;28;20033;-62
2023/03/26 06:23:57;;;;;;;6.20;2.83;;;;;;;6.81;100.00;100172.22;5030374;28;20664;-63
2023/03/26 06:26:22;;;;;;;6.20;2.33;;;;;;;6.83;100.00;100172.81;5028992;28;20036;-64
2023/03/26 06:28:48;;;;;;;4.95;2.10;;;;;;;6.83;100.00;100164.63;5028676;28;20421;-63
2023/03/26 06:31:13;;;;;;;5.82;2.53;;;;;;;6.84;100.00;100164.41;5043216;28;20466;-64
2023/03/26 06:33:38;;;;;;;6.03;2.38;;;;;;;6.86;100.00;100166.94;5039056;28;20022;-63
2023/03/26 06:36:04;;;;;;;7.15;2.47;;;;;;;6.87;100.00;100166.69;5030960;28;20025;-63
2023/03/26 06:38:30;;;;;;;6.68;2.40;;;;;;;6.87;100.00;100157.69;5042781;28;20657;-62
2023/03/26 06:41:02;;;;;;;5.22;2.40;;;;;;;6.88;100.00;100164.81;5028145;28;20040;-63
2023/03/26 06:43:27;;;;;;;5.18;2.13;;;;;;;6.89;100.00;100161.00;5022662;28;20029;-63
2023/03/26 06:45:52;;;;;;;4.30;2.10;;;;;;;6.90;100.00;100157.25;5027274;28;20029;-65
2023/03/26 06:48:18;;;;;;;6.90;2.65;;;;;;;6.92;100.00;100160.56;5034795;28;20123;-62
2023/03/26 06:50:43;;;;;;;7.53;2.70;;;;;;;6.94;100.00;100161.16;5027639;28;20181;-64
2023/03/26 06:53:10;;;;;;;5.85;2.70;;;;;;;6.95;100.00;100158.25;5027427;28;20530;-63
2023/03/26 06:55:35;;;;;;;6.38;2.40;;;;;;;6.97;100.00;100158.84;5036454;28;20025;-63
2023/03/26 06:58:00;;;;;;;5.22;2.20;;;;;;;6.99;100.00;100162.19;5048539;28;20506;-64
2023/03/26 07:00:26;;;;;;;6.00;2.50;;;;;;;7.00;100.00;100158.41;5047305;28;20467;-63
2023/03/26 07:02:51;;;;;;;6.03;2.30;;;;;;;7.04;100.00;100156.03;5027132;28;20175;-63
2023/03/26 07:05:16;;;;;;;5.20;2.20;;;;;;;7.05;100.00;100148.72;5027372;28;20029;-64
2023/03/26 07:07:42;;;;;;;5.68;2.40;;;;;;;7.07;100.00;100150.13;5028286;28;20033;-64
2023/03/26 07:10:08;;;;;;;6.85;2.58;;;;;;;7.11;100.00;100159.56;5028626;28;20036;-64
2023/03/26 07:12:33;;;;;;;4.57;2.30;;;;;;;7.13;100.00;100153.88;5028391;28;20029;-64
2023/03/26 07:15:00;;;;;;;5.63;2.45;;;;;;;7.16;100.00;100150.69;5034326;28;20024;-63
2023/03/26 07:17:26;;;;;;;5.95;2.38;;;;;;;7.15;100.00;100149.03;5040126;28;20040;-62
2023/03/26 07:19:52;;;;;;;5.18;2.13;;;;;;;7.16;100.00;100140.59;5028202;28;20021;-64
2023/03/26 07:22:22;;;;;;;6.32;2.30;;;;;;;7.18;100.00;100149.41;5027924;28;20048;-65
2023/03/26 07:24:48;;;;;;;5.55;2.40;;;;;;;7.16;100.00;100140.59;5027169;28;20033;-65
2023/03/26 07:27:37;;;;;;;6.35;2.70;;;;;;;7.20;100.00;100141.00;5042063;28;20025;-63
2023/03/26 07:30:17;;;;;;;4.43;2.22;;;;;;;7.16;100.00;100135.13;5047222;28;20028;-65
2023/03/26 07:32:58;;;;;;;5.10;2.10;;;;;;;7.17;100.00;100130.50;5045287;28;20079;-65
2023/03/26 07:35:51;;;;;;;6.53;2.65;;;;;;;7.14;100.00;100131.78;5033064;28;20372;-65
2023/03/26 07:38:41;;;;;;;5.70;2.40;;;;;;;7.11;100.00;100132.25;5027350;28;20039;-63
2023/03/26 07:41:35;;;;;;;5.55;2.50;;;;;;;7.10;100.00;100140.69;5033465;28;20079;-66
2023/03/26 07:44:32;;;;;;;6.53;2.70;;;;;;;7.11;100.00;100131.41;5046212;28;20111;-64
2023/03/26 07:47:01;;;;;;;5.57;2.40;;;;;;;7.09;100.00;100126.16;5028612;28;20057;-63
2023/03/26 07:49:28;;;;;;;6.13;2.30;;;;;;;7.11;100.00;100126.78;5025466;28;20076;-65
2023/03/26 07:51:53;;;;;;;5.32;2.42;;;;;;;7.10;100.00;100119.66;5033168;28;20021;-65
2023/03/26 07:54:19;;;;;;;4.93;2.33;;;;;;;7.12;100.00;100124.91;5026877;28;20112;-65
2023/03/26 07:56:53;;;;;;;6.15;2.50;;;;;;;7.11;100.00;100125.97;5044917;28;20423;-65
2023/03/26 07:59:45;;;;;;;6.07;2.70;;;;;;;7.12;100.00;100125.72;5029544;28;20041;-65
2023/03/26 08:02:16;;;;;;;6.47;2.88;;;;;;;7.14;100.00;100120.84;5013200;28;20087;-63
2023/03/26 08:05:01;;;;;;;5.38;2.58;;;;;;;7.15;100.00;100116.25;5035206;28;20021;-63
2023/03/26 08:07:38;;;;;;;5.35;2.40;;;;;;;7.16;100.00;100118.75;5016946;28;20036;-64
2023/03/26 08:10:41;;;;;;;5.13;2.42;;;;;;;7.20;100.00;100119.97;5025981;28;20480;-63
2023/03/26 08:13:22;;;;;;;5.95;2.53;;;;;;;7.22;100.00;100122.47;5017379;28;20069;-63
2023/03/26 08:15:59;;;;;;;4.43;2.30;;;;;;;7.23;100.00;100115.94;5025326;28;20291;-65
2023/03/26 08:18:47;;;;;;;4.03;2.10;;;;;;;7.25;100.00;100120.13;5046255;28;20055;-64
2023/03/26 08:21:25;;;;;;;5.57;2.42;;;;;;;7.29;100.00;100117.75;5020532;28;20033;-65
2023/03/26 08:23:59;;;;;;;;;;;;;;;7.36;100.00;100117.72;5026378;28;20718;-65
2023/03/26 08:26:37;;;;;;;4.03;2.10;;;;;;;7.34;100.00;100114.34;5027158;28;19913;-65
2023/03/26 08:29:43;;;;;;;4.63;2.45;;;;;;;7.41;100.00;100120.59;5025918;28;20033;-65
2023/03/26 08:32:13;;;;;;;6.63;2.70;;;;;;;7.42;100.00;100116.78;5026975;28;20729;-64
2023/03/26 08:34:39;;;;;;;4.35;2.60;;;;;;;7.45;100.00;100114.44;5025942;28;20486;-65
2023/03/26 08:37:05;;;;;;;5.63;2.65;;;;;;;7.49;100.00;100120.28;5036238;28;20029;-65
2023/03/26 08:39:30;;;;;;;5.82;2.90;;;;;;;7.52;100.00;100114.34;5046841;28;20091;-65
2023/03/26 08:42:27;;;;;;;6.07;3.20;;;;;;;7.59;100.00;100115.09;5030885;28;20040;-65
2023/03/26 08:45:22;;;;;;;5.47;2.93;;;;;;;7.67;100.00;100120.25;5026206;28;20108;-65
2023/03/26 08:48:06;;;;;;;4.10;2.50;;;;;;;7.87;100.00;100114.53;5025500;28;20408;-65
2023/03/26 08:51:11;;;;;;;4.32;2.47;;;;;;;7.80;100.00;100109.13;5026773;28;20034;-65
2023/03/26 08:53:55;;;;;;;4.00;2.13;;;;;;;7.77;100.00;100108.78;5026595;28;20512;-64
2023/03/26 08:56:57;;;;;;;4.55;2.00;;;;;;;7.82;100.00;100113.56;5026980;28;20025;-65
2023/03/26 09:00:00;;;;;;;3.70;2.13;;;;;;;7.82;100.00;100103.47;5025090;28;20450;-64
2023/03/26 09:02:46;;;;;;;6.85;2.58;;;;;;;7.68;100.00;100104.69;5022660;28;20044;-64
2023/03/26 09:05:39;;;;;;;5.45;2.60;;;;;;;7.69;100.00;100100.91;5015969;28;20502;-64
2023/03/26 09:08:24;;;;;;;5.25;2.40;;;;;;;7.76;100.00;100102.50;5029937;28;20403;-64
2023/03/26 09:11:21;;;;;;;5.35;2.50;;;;;;;7.76;100.00;100102.50;5026437;28;20057;-64
2023/03/26 09:14:17;;;;;;;4.57;2.40;;;;;;;7.83;100.00;100101.56;5023474;28;20087;-63
2023/03/26 09:16:48;;;;;;;3.45;2.20;;;;;;;7.83;100.00;100098.81;5026330;28;20484;-65
2023/03/26 09:19:51;;;;;;;2.75;1.88;;;;;;;8.15;100.00;100096.69;5026297;28;20032;-65
2023/03/26 09:22:49;;;;;;;5.80;2.83;;;;;;;7.81;100.00;100096.34;5021234;28;20525;-64
2023/03/26 09:25:40;;;;;;;4.18;2.20;;;;;;;7.85;100.00;100099.41;5022891;28;20073;-65
2023/03/26 09:28:15;;;;;;;4.78;2.10;;;;;;;8.02;100.00;100093.09;5025763;28;20033;-63
2023/03/26 09:31:02;;;;;;;3.30;2.10;;;;;;;7.97;100.00;100090.22;5023227;28;20113;-65
2023/03/26 09:33:52;;;;;;;3.80;2.33;;;;;;;8.00;100.00;100097.09;5021523;28;20029;-66
2023/03/26 09:36:56;;;;;;;4.43;2.30;;;;;;;8.05;100.00;100095.34;5025462;28;20029;-65
2023/03/26 09:39:40;;;;;;;4.40;2.20;;;;;;;8.28;100.00;100093.75;5025835;28;20045;-63
2023/03/26 09:42:18;;;;;;;3.42;2.10;;;;;;;8.30;100.00;100089.69;5021371;28;20514;-66
2023/03/26 09:45:21;;;;;;;3.75;1.67;;;;;;;8.63;100.00;100098.50;5022141;28;20033;-65
2023/03/26 09:47:55;;;;;;;3.08;1.90;;;;;;;8.34;100.00;100084.59;5018720;28;20099;-65
2023/03/26 09:50:28;;;;;;;3.33;1.70;;;;;;;8.32;100.00;100084.84;5032749;28;20025;-65
2023/03/26 09:53:15;;;;;;;3.03;1.67;;;;;;;8.41;100.00;100090.81;5025954;28;20029;-65
2023/03/26 09:55:53;;;;;;;3.80;1.90;;;;;;;8.28;100.00;100085.56;5025473;28;20037;-64
2023/03/26 09:58:37;;;;;;;3.20;1.90;;;;;;;8.46;100.00;100090.13;5025607;28;20029;-64
2023/03/26 10:01:07;;;;;;;3.90;1.90;;;;;;;8.37;100.00;100091.56;5026262;28;20269;-64
2023/03/26 10:03:47;;;;;;;4.05;1.90;;;;;;;8.43;100.00;100088.69;5025094;28;20017;-62
2023/03/26 10:06:47;;;;;;;3.30;1.50;;;;;;;8.66;100.00;100089.78;5024371;28;20029;-65
2023/03/26 10:09:27;;;;;;;2.90;1.60;;;;;;;8.57;100.00;100095.63;5027846;28;20033;-65
2023/03/26 10:11:55;;;;;;;3.17;1.60;;;;;;;8.33;100.00;100097.44;5028087;28;20079;-64
2023/03/26 10:14:47;;;;;;;5.10;2.05;;;;;;;8.47;100.00;100094.53;5027875;28;20083;-65
2023/03/26 10:17:51;;;;;;;3.47;1.80;;;;;;;8.41;100.00;100098.19;5016851;28;20044;-65
2023/03/26 10:20:32;;;;;;;2.05;1.40;;;;;;;8.58;100.00;100089.09;5015657;28;20561;-63
2023/03/26 10:23:21;;;;;;;2.00;1.40;;;;;;;8.42;100.00;100088.94;5029808;28;20177;-64
2023/03/26 10:26:05;;;;;;;1.90;1.40;;;;;;;8.23;100.00;100088.16;5029321;28;20047;-65
2023/03/26 10:29:03;;;;;;;2.15;1.40;;;;;;;8.22;100.00;100086.50;5037365;28;20032;-65
2023/03/26 10:31:45;;;;;;;2.85;1.42;;;;;;;8.20;100.00;100088.59;5049636;28;20021;-65
2023/03/26 10:34:37;;;;;;;2.30;1.50;;;;;;;8.11;100.00;100093.59;5049343;28;20025;-64
2023/03/26 10:37:12;;;;;;;2.90;1.70;;;;;;;8.13;100.00;100099.66;5001969;28;20424;-64
2023/03/26 10:40:06;;;;;;;2.25;1.70;;;;;;;8.23;100.00;100096.34;5009019;28;20018;-63
2023/03/26 10:42:46;;;;;;;2.25;1.50;;;;;;;8.20;100.00;100094.91;5019035;28;20040;-63
2023/03/26 10:45:24;;;;;;;2.80;2.10;;;;;;;8.20;100.00;100105.84;5026433;28;20170;-64
2023/03/26 10:47:54;;;;;;;3.08;2.08;;;;;;;8.29;100.00;100103.63;5025436;28;20049;-65
2023/03/26 10:50:35;;;;;;;3.22;1.90;;;;;;;8.48;100.00;100101.69;5029071;28;20167;-63
2023/03/26 10:53:09;;;;;;;3.03;1.60;;;;;;;8.58;100.00;100101.94;5028999;28;20040;-64
2023/03/26 10:55:40;;;;;;;2.72;1.83;;;;;;;8.68;100.00;100099.44;5031578;28;20025;-65
2023/03/26 10:58:17;;;;;;;3.05;1.60;;;;;;;8.66;100.00;100103.47;5038246;28;20083;-65
2023/03/26 11:00:54;;;;;;;2.75;1.65;;;;;;;8.56;100.00;100104.88;5007092;28;20038;-65
2023/03/26 11:03:42;;;;;;;3.05;1.70;;;;;;;8.65;100.00;100105.38;5011131;28;20395;-64
2023/03/26 11:06:35;;;;;;;3.20;1.73;;;;;;;8.47;100.00;100109.06;5025327;28;20033;-65
2023/03/26 11:09:28;;;;;;;3.08;1.70;;;;;;;8.68;100.00;100115.03;5027550;28;20021;-64
2023/03/26 11:12:11;;;;;;;3.00;1.63;;;;;;;8.46;100.00;100110.09;5013525;28;20445;-64
2023/03/26 11:14:56;;;;;;;3.88;2.83;;;;;;;8.48;100.00;100124.41;5015894;28;20042;-65
2023/03/26 11:17:37;;;;;;;1.92;1.27;;;;;;;8.57;100.00;100120.25;5027005;28;20030;-65
2023/03/26 11:20:17;;;;;;;1.58;1.27;;;;;;;8.31;100.00;100120.63;5027286;28;20119;-65
2023/03/26 11:23:06;;;;;;;1.83;1.30;;;;;;;8.38;100.00;100126.06;5015483;28;20033;-64
2023/03/26 11:26:09;;;;;;;1.67;1.50;;;;;;;8.33;100.00;100129.44;5028152;28;20029;-63
2023/03/26 11:28:40;;;;;;;1.77;1.42;;;;;;;8.35;100.00;100132.78;5025095;28;20029;-65
2023/03/26 11:31:39;;;;;;;2.70;1.20;;;;;;;8.35;100.00;100132.78;5027112;28;20507;-65
2023/03/26 11:34:12;;;;;;;1.65;1.35;;;;;;;8.22;100.00;100133.81;5027441;28;20021;-62
2023/03/26 11:36:42;;;;;;;14.95;13.75;;;;;;;8.24;100.00;100139.06;5026806;28;20388;-65
2023/03/26 11:39:18;;;;;;;3.88;3.50;;;;;;;8.21;100.00;100134.03;5025521;28;20679;-65
2023/03/26 11:41:43;;;;;;;1.95;1.75;;;;;;;8.24;100.00;100139.06;5026657;28;20374;-64
2023/03/26 11:44:26;;;;;;;2.05;1.40;;;;;;;8.27;100.00;100142.16;5025840;28;20026;-65
2023/03/26 11:46:57;;;;;;;2.25;1.50;;;;;;;8.33;100.00;100135.75;5026549;28;20328;-65
2023/03/26 11:49:25;;;;;;;3.00;1.10;;;;;;;8.37;100.00;100147.09;5026883;28;20148;-65
2023/03/26 11:51:51;;;;;;;;;;;;;;;8.56;100.00;100139.63;5027071;28;20422;-65
2023/03/26 11:54:16;;;;;;;2.37;1.30;;;;;;;8.48;100.00;100140.00;5026581;28;19913;-64